Time;durP1;ratioP1;P1;durP2;ratioP2;P2;SDS_P1;SDS_P2;PMS_P1;PMS_P2;Temp;Humidity;BMP_temperature;BMP_pressure;BME280_temperature;BME280_humidity;BME280_pressure;Samples;Min_cycle;Max_cycle;Signal;HPM_P1;HPM_P2
2023/06/20 00:02:16;;;;;;;18.05;16.50;;;;;;;;;;5066016;28;20728;-55
2023/06/20 00:04:42;;;;;;;16.70;15.20;;;;;;;;;;5062605;28;20768;-56
2023/06/20 00:07:09;;;;;;;17.95;16.52;;;;;;;;;;5055566;28;20232;-55
2023/06/20 00:09:35;;;;;;;18.13;16.58;;;;;;;;;;5061148;28;20235;-56
2023/06/20 00:12:03;;;;;;;17.80;16.00;;;;;;;;;;5065086;28;20717;-56
2023/06/20 00:14:30;;;;;;;17.63;16.13;;;;;;;;;;5058247;28;20806;-55
2023/06/20 00:16:59;;;;;;;20.73;18.73;;;;;;;;;;5064466;28;20601;-57
2023/06/20 00:19:25;;;;;;;18.20;16.50;;;;;;;;;;5057012;28;20330;-56
2023/06/20 00:21:52;;;;;;;19.13;17.50;;;;;;;;;;5058822;28;20245;-56
2023/06/20 00:24:18;;;;;;;20.60;18.60;;;;;;;;;;5058139;28;20243;-57
2023/06/20 00:26:45;;;;;;;19.92;18.15;;;;;;;;;;5066118;28;20253;-57
2023/06/20 00:29:12;;;;;;;18.38;16.77;;;;;;;;;;5067723;28;20235;-56
2023/06/20 00:31:39;;;;;;;18.45;16.80;;;;;;;;;;5059191;28;20322;-56
2023/06/20 00:34:05;;;;;;;19.50;17.90;;;;;;;;;;5073523;28;20230;-55
2023/06/20 00:36:31;;;;;;;18.75;17.05;;;;;;;;;;5068891;28;20314;-56
2023/06/20 00:38:58;;;;;;;17.50;15.82;;;;;;;;;;5065145;28;20241;-55
2023/06/20 00:41:24;;;;;;;16.77;15.38;;;;;;;;;;5067037;28;20305;-57
2023/06/20 00:43:51;;;;;;;19.42;17.73;;;;;;;;;;5061530;28;20775;-56
2023/06/20 00:46:20;;;;;;;20.27;18.52;;;;;;;;;;5063546;28;20236;-56
2023/06/20 00:48:47;;;;;;;19.63;17.85;;;;;;;;;;5060743;28;20239;-57
2023/06/20 00:51:14;;;;;;;18.15;16.63;;;;;;;;;;5061712;28;20234;-56
2023/06/20 00:53:40;;;;;;;18.52;16.98;;;;;;;;;;5059600;28;20239;-56
2023/06/20 00:56:06;;;;;;;20.80;18.85;;;;;;;;;;5072673;28;20222;-55
2023/06/20 00:58:33;;;;;;;20.70;18.90;;;;;;;;;;5065171;28;20223;-56
2023/06/20 01:00:59;;;;;;;18.88;17.27;;;;;;;;;;5065792;28;20701;-56
2023/06/20 01:03:27;;;;;;;20.27;18.30;;;;;;;;;;5064619;28;20235;-56
2023/06/20 01:05:56;;;;;;;19.67;18.00;;;;;;;;;;5064833;28;20226;-54
2023/06/20 01:08:27;;;;;;;19.42;17.80;;;;;;;;;;5061413;28;20234;-54
2023/06/20 01:11:00;;;;;;;20.13;18.42;;;;;;;;;;5066467;28;20223;-55
2023/06/20 01:13:33;;;;;;;19.75;18.00;;;;;;;;;;5070109;28;20251;-56
2023/06/20 01:16:03;;;;;;;18.98;17.33;;;;;;;;;;5059747;28;20255;-56
2023/06/20 01:18:36;;;;;;;19.15;17.42;;;;;;;;;;5064999;28;20238;-55
2023/06/20 01:21:07;;;;;;;18.33;16.77;;;;;;;;;;5068108;28;20651;-56
2023/06/20 01:23:37;;;;;;;18.75;17.05;;;;;;;;;;5061786;28;20236;-55
2023/06/20 01:26:05;;;;;;;19.48;17.77;;;;;;;;;;5062728;28;20301;-56
2023/06/20 01:28:36;;;;;;;20.08;18.25;;;;;;;;;;5069803;28;20229;-56
2023/06/20 01:31:04;;;;;;;19.08;17.27;;;;;;;;;;5065741;28;20347;-55
2023/06/20 01:33:34;;;;;;;18.85;17.23;;;;;;;;;;5072124;28;20239;-55
2023/06/20 01:36:01;;;;;;;18.67;17.13;;;;;;;;;;5072328;28;20299;-56
2023/06/20 01:38:28;;;;;;;18.85;17.08;;;;;;;;;;5065727;28;20223;-56
2023/06/20 01:40:57;;;;;;;20.88;18.98;;;;;;;;;;5068804;28;20650;-56
2023/06/20 01:43:23;;;;;;;20.88;19.10;;;;;;;;;;5071602;28;20318;-56
2023/06/20 01:45:51;;;;;;;19.65;17.65;;;;;;;;;;5062815;28;20731;-54
2023/06/20 01:48:19;;;;;;;19.98;18.17;;;;;;;;;;5068796;28;20238;-55
2023/06/20 01:50:47;;;;;;;20.40;18.05;;;;;;;;;;5069258;28;20235;-56
2023/06/20 01:53:13;;;;;;;20.45;18.65;;;;;;;;;;5067024;28;20251;-56
2023/06/20 01:55:41;;;;;;;20.65;18.73;;;;;;;;;;5065229;28;20733;-55
2023/06/20 01:58:09;;;;;;;21.45;19.58;;;;;;;;;;5069082;28;20235;-55
2023/06/20 02:00:36;;;;;;;19.98;18.33;;;;;;;;;;5069855;28;20227;-56
2023/06/20 02:03:03;;;;;;;18.17;16.65;;;;;;;;;;5067420;28;20239;-55
2023/06/20 02:05:31;;;;;;;20.70;18.95;;;;;;;;;;5066070;28;20233;-55
2023/06/20 02:07:58;;;;;;;20.33;18.52;;;;;;;;;;5067764;28;20247;-55
2023/06/20 02:10:26;;;;;;;19.23;17.63;;;;;;;;;;5068862;28;20235;-55
2023/06/20 02:12:54;;;;;;;20.48;18.67;;;;;;;;;;5062224;28;20842;-56
2023/06/20 02:15:23;;;;;;;20.35;18.65;;;;;;;;;;5067420;28;20231;-55
2023/06/20 02:17:49;;;;;;;19.25;17.65;;;;;;;;;;5066625;28;20235;-56
2023/06/20 02:20:16;;;;;;;21.70;20.00;;;;;;;;;;5066082;28;20237;-55
2023/06/20 02:22:44;;;;;;;21.42;19.48;;;;;;;;;;5060053;28;20235;-56
2023/06/20 02:25:12;;;;;;;20.65;18.85;;;;;;;;;;5060385;28;20708;-56
2023/06/20 02:27:40;;;;;;;21.20;18.23;;;;;;;;;;5068448;28;20235;-56
2023/06/20 02:30:07;;;;;;;18.70;17.15;;;;;;;;;;5071917;28;20240;-55
2023/06/20 02:32:36;;;;;;;20.92;19.20;;;;;;;;;;5073465;28;20308;-55
2023/06/20 02:35:05;;;;;;;20.83;18.95;;;;;;;;;;5073054;28;20235;-54
2023/06/20 02:37:33;;;;;;;20.17;18.35;;;;;;;;;;5066387;28;20235;-55
2023/06/20 02:39:59;;;;;;;19.08;17.27;;;;;;;;;;5060289;28;20323;-56
2023/06/20 02:42:26;;;;;;;19.20;17.55;;;;;;;;;;5070813;28;20322;-56
2023/06/20 02:44:52;;;;;;;19.77;18.17;;;;;;;;;;5061365;28;20242;-56
2023/06/20 02:47:24;;;;;;;20.05;18.15;;;;;;;;;;5066181;28;20721;-56
2023/06/20 02:49:55;;;;;;;18.25;16.67;;;;;;;;;;5067864;28;20593;-56
2023/06/20 02:52:26;;;;;;;20.20;18.52;;;;;;;;;;5060762;28;20260;-56
2023/06/20 02:54:58;;;;;;;20.38;18.50;;;;;;;;;;5068585;28;20227;-56
2023/06/20 02:57:25;;;;;;;19.77;18.02;;;;;;;;;;5069367;28;20242;-57
2023/06/20 02:59:55;;;;;;;20.10;18.35;;;;;;;;;;5064485;28;20231;-56
2023/06/20 03:02:23;;;;;;;19.75;18.05;;;;;;;;;;5054052;28;20845;-56
2023/06/20 03:04:51;;;;;;;20.40;18.60;;;;;;;;;;5067797;28;20417;-55
2023/06/20 03:07:20;;;;;;;20.00;18.08;;;;;;;;;;5064740;28;20226;-55
2023/06/20 03:09:47;;;;;;;19.77;17.95;;;;;;;;;;5058529;28;20235;-57
2023/06/20 03:12:13;;;;;;;19.88;18.08;;;;;;;;;;5064843;28;20644;-56
2023/06/20 03:14:40;;;;;;;20.48;18.75;;;;;;;;;;5064640;28;20223;-54
2023/06/20 03:17:06;;;;;;;20.92;18.88;;;;;;;;;;5060710;28;20239;-55
2023/06/20 03:19:33;;;;;;;19.85;18.05;;;;;;;;;;5070740;28;20227;-55
2023/06/20 03:21:59;;;;;;;22.15;19.90;;;;;;;;;;5065096;28;20297;-56
2023/06/20 03:24:27;;;;;;;21.48;19.38;;;;;;;;;;5060451;28;20235;-56
2023/06/20 03:26:53;;;;;;;20.23;18.35;;;;;;;;;;5058577;28;20234;-55
2023/06/20 03:29:20;;;;;;;20.95;19.05;;;;;;;;;;5068669;28;20235;-55
2023/06/20 03:31:46;;;;;;;19.95;18.25;;;;;;;;;;5060878;28;20709;-55
2023/06/20 03:34:12;;;;;;;20.63;18.80;;;;;;;;;;5070702;28;20313;-55
2023/06/20 03:36:39;;;;;;;20.27;18.48;;;;;;;;;;5054852;28;20235;-55
2023/06/20 03:39:05;;;;;;;20.35;18.52;;;;;;;;;;5053070;28;20228;-56
2023/06/20 03:41:33;;;;;;;19.90;18.13;;;;;;;;;;5056589;28;20223;-55
2023/06/20 03:43:59;;;;;;;20.10;18.27;;;;;;;;;;5063063;28;20237;-56
2023/06/20 03:46:26;;;;;;;19.70;18.10;;;;;;;;;;5057932;28;20228;-56
2023/06/20 03:48:52;;;;;;;20.48;18.77;;;;;;;;;;5057851;28;20232;-56
2023/06/20 03:51:18;;;;;;;19.23;17.63;;;;;;;;;;5049862;28;20231;-56
2023/06/20 03:53:45;;;;;;;18.73;16.80;;;;;;;;;;5051631;28;20223;-56
2023/06/20 03:56:11;;;;;;;19.67;18.05;;;;;;;;;;5061091;28;20219;-56
2023/06/20 03:58:39;;;;;;;19.67;18.00;;;;;;;;;;5062005;28;20235;-56
2023/06/20 04:01:06;;;;;;;19.48;17.88;;;;;;;;;;5063407;28;20261;-55
2023/06/20 04:03:32;;;;;;;18.25;16.75;;;;;;;;;;5058102;28;20239;-55
2023/06/20 04:06:01;;;;;;;21.70;18.98;;;;;;;;;;5066292;28;20563;-55
2023/06/20 04:08:27;;;;;;;20.58;18.73;;;;;;;;;;5065560;28;20227;-54
2023/06/20 04:10:53;;;;;;;18.88;17.23;;;;;;;;;;5067453;28;20313;-55
2023/06/20 04:13:20;;;;;;;18.58;16.80;;;;;;;;;;5060915;28;20242;-55
2023/06/20 04:15:47;;;;;;;19.23;17.55;;;;;;;;;;5074999;28;20578;-55
2023/06/20 04:18:14;;;;;;;19.17;17.55;;;;;;;;;;5065017;28;20284;-55
2023/06/20 04:20:41;;;;;;;23.77;21.58;;;;;;;;;;5054920;28;20896;-55
2023/06/20 04:23:08;;;;;;;23.63;21.48;;;;;;;;;;5065120;28;20241;-55
2023/06/20 04:25:34;;;;;;;25.05;22.30;;;;;;;;;;5069646;28;20312;-55
2023/06/20 04:28:02;;;;;;;24.25;21.85;;;;;;;;;;5066176;28;20231;-56
2023/06/20 04:30:28;;;;;;;26.38;23.52;;;;;;;;;;5065717;28;20235;-56
2023/06/20 04:32:56;;;;;;;25.17;22.58;;;;;;;;;;5052954;28;20231;-55
2023/06/20 04:35:22;;;;;;;24.92;22.42;;;;;;;;;;5046446;28;20238;-56
2023/06/20 04:37:51;;;;;;;26.05;23.42;;;;;;;;;;5057714;28;20627;-55
2023/06/20 04:40:17;;;;;;;25.88;23.23;;;;;;;;;;5064136;28;20235;-55
2023/06/20 04:42:45;;;;;;;22.33;20.23;;;;;;;;;;5054654;28;20322;-54
2023/06/20 04:45:11;;;;;;;21.45;19.58;;;;;;;;;;5065441;28;20311;-55
2023/06/20 04:47:38;;;;;;;23.52;21.25;;;;;;;;;;5052981;28;20235;-55
2023/06/20 04:50:06;;;;;;;24.02;21.63;;;;;;;;;;5052969;28;20234;-55
2023/06/20 04:52:32;;;;;;;25.10;22.05;;;;;;;;;;5048066;28;20306;-54
2023/06/20 04:55:02;;;;;;;24.45;22.20;;;;;;;;;;5058587;28;20238;-56
2023/06/20 04:57:29;;;;;;;22.67;20.38;;;;;;;;;;5062079;28;20223;-55
2023/06/20 04:59:55;;;;;;;19.63;17.92;;;;;;;;;;5060394;28;20317;-56
2023/06/20 05:02:21;;;;;;;21.73;19.73;;;;;;;;;;5060442;28;20245;-56
2023/06/20 05:04:48;;;;;;;23.98;21.77;;;;;;;;;;5053960;28;20301;-55
2023/06/20 05:07:15;;;;;;;20.45;18.65;;;;;;;;;;5064032;28;20254;-57
2023/06/20 05:09:42;;;;;;;20.88;18.70;;;;;;;;;;5067131;28;20258;-56
2023/06/20 05:12:08;;;;;;;21.42;19.27;;;;;;;;;;5067535;28;20266;-56
2023/06/20 05:14:35;;;;;;;21.67;19.77;;;;;;;;;;5065387;28;20270;-55
2023/06/20 05:17:01;;;;;;;21.58;19.60;;;;;;;;;;5065850;28;20231;-57
2023/06/20 05:19:27;;;;;;;23.80;21.48;;;;;;;;;;5073214;28;20357;-55
2023/06/20 05:21:54;;;;;;;21.50;19.55;;;;;;;;;;5067359;28;20238;-55
2023/06/20 05:24:21;;;;;;;20.25;18.35;;;;;;;;;;5062350;28;20232;-56
2023/06/20 05:26:48;;;;;;;21.70;19.85;;;;;;;;;;5072184;28;20862;-56
2023/06/20 05:29:14;;;;;;;20.48;18.48;;;;;;;;;;5066455;28;20734;-56
2023/06/20 05:31:41;;;;;;;20.27;18.58;;;;;;;;;;5063564;28;20255;-55
2023/06/20 05:34:08;;;;;;;20.25;18.45;;;;;;;;;;5064400;28;20227;-55
2023/06/20 05:36:34;;;;;;;22.00;20.10;;;;;;;;;;5064902;28;20239;-55
2023/06/20 05:39:00;;;;;;;22.80;20.60;;;;;;;;;;5066488;28;20242;-56
2023/06/20 05:41:28;;;;;;;19.05;17.45;;;;;;;;;;5068546;28;20693;-54
2023/06/20 05:43:54;;;;;;;20.98;19.00;;;;;;;;;;5064506;28;20318;-54
2023/06/20 05:46:21;;;;;;;21.45;19.58;;;;;;;;;;5067678;28;20246;-55
2023/06/20 05:48:48;;;;;;;20.40;18.63;;;;;;;;;;5074947;28;20223;-55
2023/06/20 05:51:14;;;;;;;20.08;18.38;;;;;;;;;;5068579;28;20238;-54
2023/06/20 05:53:41;;;;;;;20.88;19.05;;;;;;;;;;5065690;28;20235;-56
2023/06/20 05:56:08;;;;;;;21.00;19.20;;;;;;;;;;5068708;28;20759;-55
2023/06/20 05:58:36;;;;;;;23.85;21.65;;;;;;;;;;5063073;28;20236;-55
2023/06/20 06:01:03;;;;;;;22.13;20.05;;;;;;;;;;5064877;28;20223;-55
2023/06/20 06:03:29;;;;;;;20.80;18.90;;;;;;;;;;5076434;28;20805;-56
2023/06/20 06:05:56;;;;;;;18.40;16.70;;;;;;;;;;5064868;28;20223;-56
2023/06/20 06:08:22;;;;;;;21.20;19.40;;;;;;;;;;5079043;28;20235;-56
2023/06/20 06:10:49;;;;;;;21.10;19.30;;;;;;;;;;5082911;28;20251;-56
2023/06/20 06:13:15;;;;;;;21.25;19.17;;;;;;;;;;5078434;28;20799;-56
2023/06/20 06:15:43;;;;;;;22.27;20.13;;;;;;;;;;5073791;28;20232;-55
2023/06/20 06:18:09;;;;;;;22.55;20.40;;;;;;;;;;5071815;28;20234;-55
2023/06/20 06:20:36;;;;;;;24.33;21.80;;;;;;;;;;5065714;28;20231;-54
2023/06/20 06:23:02;;;;;;;22.08;20.17;;;;;;;;;;5067615;28;20320;-54
2023/06/20 06:25:28;;;;;;;21.50;19.40;;;;;;;;;;5068997;28;20235;-54
2023/06/20 06:27:55;;;;;;;25.83;23.48;;;;;;;;;;5065486;28;20310;-55
2023/06/20 06:30:21;;;;;;;23.00;20.80;;;;;;;;;;5064746;28;20240;-55
2023/06/20 06:32:49;;;;;;;23.13;20.70;;;;;;;;;;5067437;28;20239;-54
2023/06/20 06:35:16;;;;;;;20.25;18.50;;;;;;;;;;5069968;28;20230;-55
2023/06/20 06:37:42;;;;;;;23.92;21.50;;;;;;;;;;5070728;28;20227;-54
2023/06/20 06:40:10;;;;;;;22.35;20.25;;;;;;;;;;5067796;28;20227;-54
2023/06/20 06:42:36;;;;;;;23.98;21.75;;;;;;;;;;5064664;28;20581;-54
2023/06/20 06:45:03;;;;;;;20.98;19.27;;;;;;;;;;5069065;28;20258;-53
2023/06/20 06:47:29;;;;;;;22.60;20.50;;;;;;;;;;5064029;28;20310;-54
2023/06/20 06:49:57;;;;;;;20.80;18.88;;;;;;;;;;5064290;28;20308;-55
2023/06/20 06:52:24;;;;;;;20.27;18.60;;;;;;;;;;5066586;28;20464;-54
2023/06/20 06:54:50;;;;;;;23.17;21.13;;;;;;;;;;5067424;28;20306;-54
2023/06/20 06:57:16;;;;;;;25.33;23.08;;;;;;;;;;5068048;28;20258;-55
2023/06/20 06:59:43;;;;;;;24.35;22.05;;;;;;;;;;5067451;28;20235;-54
2023/06/20 07:02:09;;;;;;;22.75;20.83;;;;;;;;;;5077271;28;20716;-54
2023/06/20 07:04:35;;;;;;;25.50;23.10;;;;;;;;;;5066739;28;20969;-55
2023/06/20 07:07:03;;;;;;;25.25;22.85;;;;;;;;;;5066276;28;20593;-59
2023/06/20 07:09:30;;;;;;;26.13;23.73;;;;;;;;;;5066670;28;20234;-54
2023/06/20 07:11:56;;;;;;;23.70;21.60;;;;;;;;;;5069740;28;20321;-55
2023/06/20 07:14:23;;;;;;;20.65;18.85;;;;;;;;;;5064266;28;20239;-54
2023/06/20 07:16:49;;;;;;;23.83;21.65;;;;;;;;;;5066429;28;20227;-54
2023/06/20 07:19:15;;;;;;;22.92;20.92;;;;;;;;;;5064345;28;20230;-55
2023/06/20 07:21:42;;;;;;;21.13;19.05;;;;;;;;;;5065067;28;20631;-56
2023/06/20 07:24:10;;;;;;;23.92;21.63;;;;;;;;;;5070012;28;20238;-55
2023/06/20 07:26:36;;;;;;;24.67;22.38;;;;;;;;;;5067925;28;20233;-55
2023/06/20 07:29:02;;;;;;;22.20;19.90;;;;;;;;;;5068651;28;20255;-54
2023/06/20 07:31:29;;;;;;;23.20;21.00;;;;;;;;;;5065430;28;20308;-55
2023/06/20 07:33:55;;;;;;;20.73;18.85;;;;;;;;;;5066054;28;20227;-55
2023/06/20 07:36:22;;;;;;;21.25;19.35;;;;;;;;;;5060894;28;20234;-54
2023/06/20 07:38:48;;;;;;;23.20;20.92;;;;;;;;;;5065558;28;20227;-54
2023/06/20 07:41:16;;;;;;;22.00;20.13;;;;;;;;;;5064364;28;20780;-54
2023/06/20 07:43:43;;;;;;;24.23;21.77;;;;;;;;;;5055411;28;20323;-55
2023/06/20 07:46:09;;;;;;;23.95;21.67;;;;;;;;;;5065273;28;20610;-54
2023/06/20 07:48:36;;;;;;;23.88;21.77;;;;;;;;;;5070044;28;20306;-55
2023/06/20 07:51:02;;;;;;;23.48;21.38;;;;;;;;;;5073913;28;20242;-55
2023/06/20 07:53:28;;;;;;;26.60;24.13;;;;;;;;;;5074914;28;20266;-55
2023/06/20 07:55:55;;;;;;;22.85;20.60;;;;;;;;;;5073045;28;20257;-54
2023/06/20 07:58:23;;;;;;;24.95;22.65;;;;;;;;;;5063732;28;20247;-54
2023/06/20 08:00:50;;;;;;;20.75;19.02;;;;;;;;;;5066182;28;21114;-55
2023/06/20 08:03:21;;;;;;;20.38;18.50;;;;;;;;;;5072430;28;20262;-55
2023/06/20 08:05:48;;;;;;;22.08;20.08;;;;;;;;;;5074800;28;20716;-55
2023/06/20 08:08:14;;;;;;;20.70;18.90;;;;;;;;;;5077848;28;20244;-55
2023/06/20 08:10:41;;;;;;;20.30;18.60;;;;;;;;;;5060981;28;20912;-54
2023/06/20 08:13:07;;;;;;;19.38;17.67;;;;;;;;;;5069163;28;20593;-54
2023/06/20 08:15:36;;;;;;;24.42;22.23;;;;;;;;;;5068058;28;20235;-55
2023/06/20 08:18:02;;;;;;;24.13;21.80;;;;;;;;;;5072388;28;20601;-56
2023/06/20 08:20:30;;;;;;;27.27;24.67;;;;;;;;;;5067072;28;20254;-54
2023/06/20 08:22:56;;;;;;;21.27;19.48;;;;;;;;;;5072442;28;20326;-55
2023/06/20 08:25:23;;;;;;;24.25;22.02;;;;;;;;;;5068478;28;20254;-55
2023/06/20 08:27:50;;;;;;;20.63;18.83;;;;;;;;;;5050921;28;20224;-54
2023/06/20 08:30:16;;;;;;;19.38;17.55;;;;;;;;;;5067053;28;20235;-54
2023/06/20 08:32:45;;;;;;;25.08;22.77;;;;;;;;;;5065749;28;20246;-55
2023/06/20 08:35:11;;;;;;;22.48;20.48;;;;;;;;;;5078803;28;20310;-55
2023/06/20 08:37:38;;;;;;;19.60;17.80;;;;;;;;;;5064805;28;20799;-55
2023/06/20 08:40:08;;;;;;;22.75;20.77;;;;;;;;;;5064236;28;20239;-53
2023/06/20 08:42:35;;;;;;;21.65;19.83;;;;;;;;;;5063076;28;20869;-53
2023/06/20 08:45:01;;;;;;;18.83;17.15;;;;;;;;;;5062492;28;20227;-55
2023/06/20 08:47:27;;;;;;;20.08;18.25;;;;;;;;;;5069995;28;20225;-54
2023/06/20 08:49:55;;;;;;;24.95;22.75;;;;;;;;;;5066755;28;20254;-56
2023/06/20 08:52:24;;;;;;;24.92;22.48;;;;;;;;;;5064462;28;20306;-55
2023/06/20 08:54:51;;;;;;;24.70;22.33;;;;;;;;;;5047479;28;20242;-55
2023/06/20 08:57:18;;;;;;;24.95;22.65;;;;;;;;;;5057248;28;20252;-56
2023/06/20 08:59:44;;;;;;;24.58;22.08;;;;;;;;;;5058292;28;20239;-54
2023/06/20 09:02:11;;;;;;;23.60;20.98;;;;;;;;;;5056599;28;20238;-55
2023/06/20 09:04:37;;;;;;;25.20;22.52;;;;;;;;;;5058051;28;20223;-56
2023/06/20 09:07:14;;;;;;;24.70;22.15;;;;;;;;;;5056276;28;20272;-55
2023/06/20 09:09:40;;;;;;;25.13;22.58;;;;;;;;;;5060002;28;20226;-54
2023/06/20 09:12:07;;;;;;;24.95;22.85;;;;;;;;;;5065636;28;20237;-55
2023/06/20 09:14:33;;;;;;;26.38;23.45;;;;;;;;;;5055107;28;20227;-54
2023/06/20 09:17:00;;;;;;;24.10;21.83;;;;;;;;;;5069779;28;20232;-54
2023/06/20 09:19:27;;;;;;;25.17;22.00;;;;;;;;;;5070479;27;20272;-60
2023/06/20 09:22:03;;;;;;;24.42;22.20;;;;;;;;;;5063245;28;20288;-57
2023/06/20 09:24:31;;;;;;;25.00;22.55;;;;;;;;;;5070851;28;20310;-57
2023/06/20 09:27:02;;;;;;;26.70;24.00;;;;;;;;;;5083808;28;20226;-54
2023/06/20 09:29:29;;;;;;;24.35;22.17;;;;;;;;;;5079359;28;20601;-54
2023/06/20 09:31:55;;;;;;;25.48;23.27;;;;;;;;;;5076751;28;20230;-54
2023/06/20 09:34:22;;;;;;;26.63;24.33;;;;;;;;;;5063455;28;21223;-54
2023/06/20 09:36:48;;;;;;;25.10;22.17;;;;;;;;;;5057725;28;21082;-54
2023/06/20 09:39:17;;;;;;;26.90;24.45;;;;;;;;;;5070678;28;20234;-54
2023/06/20 09:41:49;;;;;;;26.55;23.58;;;;;;;;;;5075056;28;20242;-55
2023/06/20 09:44:16;;;;;;;28.88;26.00;;;;;;;;;;5072243;28;20231;-54
2023/06/20 09:46:43;;;;;;;26.42;24.13;;;;;;;;;;5069810;28;20265;-54
2023/06/20 09:49:11;;;;;;;27.63;25.23;;;;;;;;;;5067570;28;20276;-55
2023/06/20 09:51:41;;;;;;;25.33;23.00;;;;;;;;;;5065782;28;20231;-54
2023/06/20 09:54:12;;;;;;;26.70;24.38;;;;;;;;;;5062887;28;20241;-54
2023/06/20 09:56:40;;;;;;;25.10;22.90;;;;;;;;;;5069225;28;20768;-55
2023/06/20 09:59:09;;;;;;;29.95;27.10;;;;;;;;;;5067303;28;20232;-53
2023/06/20 10:01:38;;;;;;;24.95;22.80;;;;;;;;;;5069984;28;20227;-53
2023/06/20 10:04:04;;;;;;;27.25;24.70;;;;;;;;;;5066150;28;20242;-51
2023/06/20 10:06:31;;;;;;;26.45;23.95;;;;;;;;;;5065750;28;20280;-52
2023/06/20 10:08:58;;;;;;;31.83;26.35;;;;;;;;;;5062474;28;20288;-50
2023/06/20 10:11:27;;;;;;;28.50;25.67;;;;;;;;;;5067218;28;20746;-51
2023/06/20 10:13:53;;;;;;;27.90;25.35;;;;;;;;;;5077650;28;20478;-53
2023/06/20 10:16:21;;;;;;;31.77;28.40;;;;;;;;;;5073430;28;20230;-52
2023/06/20 10:18:48;;;;;;;32.78;29.58;;;;;;;;;;5069615;28;20228;-53
2023/06/20 10:21:15;;;;;;;32.60;29.30;;;;;;;;;;5067540;28;20237;-53
2023/06/20 10:23:42;;;;;;;33.67;30.17;;;;;;;;;;5064475;28;20248;-53
2023/06/20 10:26:10;;;;;;;33.25;29.85;;;;;;;;;;5076948;28;20721;-52
2023/06/20 10:28:37;;;;;;;31.60;28.58;;;;;;;;;;5081533;28;20227;-51
2023/06/20 10:31:04;;;;;;;34.45;31.00;;;;;;;;;;5076245;28;20708;-52
2023/06/20 10:33:32;;;;;;;32.22;29.00;;;;;;;;;;5073358;28;20227;-51
2023/06/20 10:35:59;;;;;;;35.33;31.75;;;;;;;;;;5060884;28;20241;-52
2023/06/20 10:38:26;;;;;;;31.60;28.58;;;;;;;;;;5062275;28;20258;-52
2023/06/20 10:41:08;;;;;;;30.85;27.85;;;;;;;;;;5068705;28;20859;-52
2023/06/20 10:43:48;;;;;;;32.20;29.00;;;;;;;;;;5070005;28;20239;-52
2023/06/20 10:46:14;;;;;;;30.63;27.83;;;;;;;;;;5066598;28;20234;-52
2023/06/20 10:48:42;;;;;;;30.45;27.17;;;;;;;;;;5065012;28;20708;-51
2023/06/20 10:51:09;;;;;;;34.38;31.10;;;;;;;;;;5068490;28;20742;-51
2023/06/20 10:53:36;;;;;;;33.55;30.20;;;;;;;;;;5061973;28;20228;-53
2023/06/20 10:56:03;;;;;;;34.60;31.15;;;;;;;;;;5061603;28;20230;-51
2023/06/20 10:58:29;;;;;;;37.58;34.00;;;;;;;;;;5068003;28;20340;-51
2023/06/20 11:00:56;;;;;;;38.15;34.38;;;;;;;;;;5061961;28;20235;-52
2023/06/20 11:03:23;;;;;;;32.10;29.20;;;;;;;;;;5062986;28;20230;-51
2023/06/20 11:05:53;;;;;;;32.63;29.58;;;;;;;;;;5071688;28;20257;-51
2023/06/20 11:08:21;;;;;;;34.47;31.17;;;;;;;;;;5076057;28;20238;-53
2023/06/20 11:10:48;;;;;;;34.72;31.33;;;;;;;;;;5054765;28;20319;-50
2023/06/20 11:13:14;;;;;;;31.35;28.35;;;;;;;;;;5058701;28;20228;-51
2023/06/20 11:15:40;;;;;;;35.20;31.98;;;;;;;;;;5056980;28;20257;-51
2023/06/20 11:18:08;;;;;;;36.83;32.90;;;;;;;;;;5060394;28;20316;-52
2023/06/20 11:20:35;;;;;;;33.08;29.85;;;;;;;;;;5049437;28;20242;-51
2023/06/20 11:23:04;;;;;;;38.08;34.40;;;;;;;;;;5057089;28;20324;-54
2023/06/20 11:25:31;;;;;;;32.55;29.40;;;;;;;;;;5048787;28;20307;-56
2023/06/20 11:28:04;;;;;;;39.65;35.97;;;;;;;;;;5046327;28;20327;-51
2023/06/20 11:30:31;;;;;;;36.63;33.20;;;;;;;;;;5048836;28;20651;-52
2023/06/20 11:32:58;;;;;;;42.33;38.05;;;;;;;;;;5049261;28;20326;-52
2023/06/20 11:35:25;;;;;;;40.55;36.78;;;;;;;;;;5062091;28;20245;-51
2023/06/20 11:37:51;;;;;;;41.97;37.97;;;;;;;;;;5058735;28;20792;-52
2023/06/20 11:40:22;;;;;;;40.75;37.00;;;;;;;;;;5045998;28;20235;-51
2023/06/20 11:42:49;;;;;;;40.05;36.28;;;;;;;;;;5065377;28;20330;-52
2023/06/20 11:45:15;;;;;;;40.50;36.67;;;;;;;;;;5065606;28;20590;-51
2023/06/20 11:47:43;;;;;;;38.95;35.55;;;;;;;;;;5059339;28;20239;-51
2023/06/20 11:50:21;;;;;;;36.88;33.45;;;;;;;;;;5056610;28;20648;-51
2023/06/20 11:52:55;;;;;;;41.58;37.63;;;;;;;;;;5056490;28;20235;-51
2023/06/20 11:55:36;;;;;;;44.63;40.28;;;;;;;;;;5057591;28;20255;-52
2023/06/20 11:58:08;;;;;;;45.67;41.00;;;;;;;;;;5056408;28;20345;-51
2023/06/20 12:00:35;;;;;;;37.60;34.20;;;;;;;;;;5063123;28;20235;-53
2023/06/20 12:03:01;;;;;;;36.47;32.88;;;;;;;;;;5065422;28;20259;-51
2023/06/20 12:05:31;;;;;;;33.50;30.55;;;;;;;;;;5060124;28;20230;-51
2023/06/20 12:07:57;;;;;;;32.80;29.80;;;;;;;;;;5064237;28;20243;-53
2023/06/20 12:10:28;;;;;;;37.53;33.95;;;;;;;;;;5057108;28;20236;-51
2023/06/20 12:12:54;;;;;;;39.65;35.97;;;;;;;;;;5058834;28;20720;-53
2023/06/20 12:15:22;;;;;;;31.95;29.05;;;;;;;;;;5064260;28;20239;-52
2023/06/20 12:17:48;;;;;;;35.55;32.20;;;;;;;;;;5061890;28;20769;-52
2023/06/20 12:20:15;;;;;;;39.20;35.53;;;;;;;;;;5064012;28;20306;-52
2023/06/20 12:22:41;;;;;;;42.92;38.97;;;;;;;;;;5058372;28;20335;-52
2023/06/20 12:25:08;;;;;;;40.28;36.65;;;;;;;;;;5064693;28;20235;-51
2023/06/20 12:27:35;;;;;;;32.75;29.67;;;;;;;;;;5060078;28;20239;-52
2023/06/20 12:30:01;;;;;;;35.92;32.63;;;;;;;;;;5063937;28;20937;-52
2023/06/20 12:32:29;;;;;;;35.67;32.42;;;;;;;;;;5059885;28;20775;-52
2023/06/20 12:34:56;;;;;;;29.00;26.40;;;;;;;;;;5061806;28;20227;-53
2023/06/20 12:37:23;;;;;;;31.45;28.48;;;;;;;;;;5060284;28;20235;-53
2023/06/20 12:39:51;;;;;;;28.42;26.08;;;;;;;;;;5058875;28;20247;-52
2023/06/20 12:42:18;;;;;;;28.15;25.85;;;;;;;;;;5047906;28;20271;-52
2023/06/20 12:44:45;;;;;;;31.02;28.02;;;;;;;;;;5054363;28;20223;-53
2023/06/20 12:47:12;;;;;;;30.85;27.92;;;;;;;;;;5061131;28;20235;-53
2023/06/20 12:49:39;;;;;;;30.80;28.10;;;;;;;;;;5057225;28;20793;-52
2023/06/20 12:52:08;;;;;;;28.95;26.52;;;;;;;;;;5059336;28;20241;-52
2023/06/20 12:54:34;;;;;;;26.23;23.83;;;;;;;;;;5052269;28;20301;-53
2023/06/20 12:57:01;;;;;;;31.27;28.45;;;;;;;;;;5061043;28;20227;-52
2023/06/20 12:59:27;;;;;;;28.77;26.20;;;;;;;;;;5055979;28;20241;-52
2023/06/20 13:01:53;;;;;;;25.52;23.17;;;;;;;;;;5052481;28;20227;-54
2023/06/20 13:04:20;;;;;;;28.95;26.52;;;;;;;;;;5054914;28;20288;-53
2023/06/20 13:06:48;;;;;;;31.48;28.40;;;;;;;;;;5058530;28;20280;-54
2023/06/20 13:09:14;;;;;;;26.95;24.60;;;;;;;;;;5062782;28;20246;-53
2023/06/20 13:11:40;;;;;;;27.77;25.42;;;;;;;;;;5066426;28;20231;-53
2023/06/20 13:14:07;;;;;;;28.95;22.98;;;;;;;;;;5053593;28;20701;-54
2023/06/20 13:16:33;;;;;;;28.63;26.08;;;;;;;;;;5065585;28;20314;-54
2023/06/20 13:19:01;;;;;;;27.50;24.98;;;;;;;;;;5065062;28;20231;-53
2023/06/20 13:21:29;;;;;;;24.10;21.92;;;;;;;;;;5064194;28;20231;-53
2023/06/20 13:23:56;;;;;;;23.90;21.80;;;;;;;;;;5058355;28;20266;-54
2023/06/20 13:26:23;;;;;;;31.02;27.90;;;;;;;;;;5059615;28;20280;-53
2023/06/20 13:28:49;;;;;;;25.80;23.38;;;;;;;;;;5054329;28;20231;-54
2023/06/20 13:31:16;;;;;;;23.90;21.52;;;;;;;;;;5063702;28;20314;-54
2023/06/20 13:33:42;;;;;;;24.48;22.40;;;;;;;;;;5056651;28;20956;-54
2023/06/20 13:36:10;;;;;;;22.27;20.35;;;;;;;;;;5063306;28;20310;-54
2023/06/20 13:38:36;;;;;;;26.20;23.92;;;;;;;;;;5054132;28;20231;-54
2023/06/20 13:41:04;;;;;;;22.77;20.98;;;;;;;;;;5057398;28;20316;-54
2023/06/20 13:43:31;;;;;;;24.55;22.38;;;;;;;;;;5054036;28;20335;-54
2023/06/20 13:45:57;;;;;;;25.33;23.08;;;;;;;;;;5054564;28;20344;-54
2023/06/20 13:48:24;;;;;;;23.75;21.58;;;;;;;;;;5054379;28;20318;-54
2023/06/20 13:50:50;;;;;;;23.83;21.75;;;;;;;;;;5050913;28;20231;-53
2023/06/20 13:53:16;;;;;;;22.88;20.95;;;;;;;;;;5054821;28;20322;-55
2023/06/20 13:55:44;;;;;;;23.73;21.65;;;;;;;;;;5054928;28;20316;-54
2023/06/20 13:58:12;;;;;;;23.05;20.80;;;;;;;;;;5061516;28;20239;-53
2023/06/20 14:00:38;;;;;;;26.10;24.02;;;;;;;;;;5052008;28;20327;-54
2023/06/20 14:03:05;;;;;;;23.90;21.90;;;;;;;;;;5047670;28;20255;-54
2023/06/20 14:05:32;;;;;;;22.40;20.45;;;;;;;;;;5057436;28;20685;-53
2023/06/20 14:07:58;;;;;;;24.63;22.42;;;;;;;;;;5057532;28;20590;-54
2023/06/20 14:10:24;;;;;;;26.02;23.73;;;;;;;;;;5060691;28;20228;-55
2023/06/20 14:12:51;;;;;;;22.75;20.75;;;;;;;;;;5059978;28;20318;-54
2023/06/20 14:15:19;;;;;;;24.90;22.75;;;;;;;;;;5049707;28;20606;-53
2023/06/20 14:17:46;;;;;;;22.55;20.55;;;;;;;;;;5054273;28;20239;-52